| time (UTC) | temp F | wind direction | speed MPH | gust MPH | rain 1hr in | rain 24hr in | rain mn in | humidity % | barometer mb |
| 20260504001551 | 61 | 0 | 0.0 | 4.0 | 0.00 | 0.00 | 0.00 | 50 | 1012.9 |
| 20260504000049 | 62 | 154 | 2.0 | 13.0 | 0.00 | 0.00 | 0.00 | 47 | 1013.1 |
| 20260503234550 | 63 | 150 | 4.0 | 12.0 | 0.00 | 0.00 | 0.00 | 46 | 1013.2 |
| 20260503233053 | 63 | 309 | 3.0 | 8.0 | 0.00 | 0.00 | 0.00 | 47 | 1013.1 |
| 20260503231544 | 63 | 128 | 2.0 | 11.0 | 0.00 | 0.00 | 0.00 | 47 | 1013.3 |
| 20260503230048 | 63 | 165 | 6.0 | 16.0 | 0.00 | 0.00 | 0.00 | 44 | 1013.6 |
| 20260503224544 | 64 | 232 | 3.0 | 9.0 | 0.00 | 0.00 | 0.00 | 45 | 1014.0 |
| 20260503223048 | 64 | 176 | 3.0 | 13.0 | 0.00 | 0.00 | 0.00 | 45 | 1014.2 |
| 20260503221555 | 64 | 262 | 3.0 | 11.0 | 0.00 | 0.00 | 0.00 | 44 | 1014.2 |
| 20260503220101 | 64 | 269 | 5.0 | 12.0 | 0.00 | 0.00 | 0.00 | 45 | 1014.6 |
| 20260503214546 | 64 | 158 | 3.0 | 11.0 | 0.00 | 0.00 | 0.00 | 43 | 1015.0 |
| 20260503213048 | 64 | 282 | 7.0 | 14.0 | 0.00 | 0.00 | 0.00 | 43 | 1015.1 |
| 20260503211542 | 63 | 99 | 2.0 | 11.0 | 0.00 | 0.00 | 0.00 | 43 | 1014.8 |
| 20260503210054 | 63 | 201 | 3.0 | 13.0 | 0.00 | 0.00 | 0.00 | 41 | 1015.3 |
| 20260503204602 | 64 | 207 | 5.0 | 13.0 | 0.00 | 0.00 | 0.00 | 41 | 1015.5 |
| 20260503203058 | 63 | 273 | 3.0 | 10.0 | 0.00 | 0.00 | 0.00 | 40 | 1015.4 |
| 20260503201551 | 63 | 259 | 4.0 | 14.0 | 0.00 | 0.00 | 0.00 | 42 | 1015.9 |
| 20260503200050 | 63 | 165 | 5.0 | 14.0 | 0.00 | 0.00 | 0.00 | 40 | 1016.3 |
| 20260503194608 | 63 | 179 | 4.0 | 13.0 | 0.00 | 0.00 | 0.00 | 40 | 1016.9 |
| 20260503193050 | 62 | 214 | 6.0 | 14.0 | 0.00 | 0.00 | 0.00 | 43 | 1017.1 |
| 20260503191601 | 62 | 205 | 4.0 | 14.0 | 0.00 | 0.00 | 0.00 | 40 | 1017.2 |
| 20260503190058 | 62 | 260 | 4.0 | 14.0 | 0.00 | 0.00 | 0.00 | 42 | 1017.6 |
| 20260503184554 | 62 | 176 | 3.0 | 13.0 | 0.00 | 0.00 | 0.00 | 41 | 1017.7 |
| 20260503183057 | 61 | 293 | 2.0 | 11.0 | 0.00 | 0.00 | 0.00 | 40 | 1018.0 |
| 20260503181552 | 61 | 5 | 4.0 | 10.0 | 0.00 | 0.00 | 0.00 | 40 | 1018.2 |
| 20260503180105 | 61 | 197 | 4.0 | 8.0 | 0.00 | 0.00 | 0.00 | 40 | 1018.4 |
| 20260503174551 | 60 | 184 | 3.0 | 8.0 | 0.00 | 0.00 | 0.00 | 41 | 1018.6 |
| 20260503173139 | 59 | 211 | 3.0 | 11.0 | 0.00 | 0.00 | 0.00 | 45 | 1018.7 |
| 20260503171549 | 60 | 263 | 3.0 | 10.0 | 0.00 | 0.00 | 0.00 | 41 | 1019.0 |
| 20260503081556 | 34 | 0 | 0.0 | 0.0 | 0.00 | 0.00 | 0.00 | 96 | 1019.2 |
| 20260503071551 | 35 | 0 | 0.0 | 0.0 | 0.00 | 0.00 | 0.00 | 95 | 1018.9 |
| 20260503054549 | 37 | 0 | 0.0 | 0.0 | 0.00 | 0.00 | 0.00 | 94 | 1018.9 |
| 20260503053052 | 37 | 0 | 0.0 | 0.0 | 0.00 | 0.00 | 0.00 | 93 | 1018.9 |
| 20260503051550 | 37 | 0 | 0.0 | 0.0 | 0.00 | 0.00 | 0.00 | 93 | 1018.9 |
| 20260503050046 | 38 | 0 | 0.0 | 0.0 | 0.00 | 0.00 | 0.00 | 92 | 1019.0 |
| 20260503044548 | 38 | 0 | 0.0 | 0.0 | 0.00 | 0.00 | 0.00 | 92 | 1018.9 |
| 20260503043049 | 38 | 0 | 0.0 | 0.0 | 0.00 | 0.00 | 0.00 | 91 | 1018.9 |
| 20260503041552 | 39 | 0 | 0.0 | 0.0 | 0.00 | 0.00 | 0.00 | 89 | 1018.7 |
| 20260503040049 | 40 | 0 | 0.0 | 0.0 | 0.00 | 0.00 | 0.00 | 88 | 1018.6 |
| 20260503034549 | 41 | 0 | 0.0 | 0.0 | 0.00 | 0.00 | 0.00 | 88 | 1018.6 |
| 20260503033050 | 41 | 0 | 0.0 | 1.0 | 0.00 | 0.00 | 0.00 | 90 | 1018.6 |
| 20260503031601 | 41 | 0 | 0.0 | 1.0 | 0.00 | 0.00 | 0.00 | 88 | 1018.4 |
| 20260503030050 | 41 | 0 | 0.0 | 0.0 | 0.00 | 0.00 | 0.00 | 86 | 1018.3 |
| 20260503024551 | 42 | 0 | 0.0 | 0.0 | 0.00 | 0.00 | 0.00 | 86 | 1018.2 |
| 20260503023048 | 42 | 0 | 0.0 | 0.0 | 0.00 | 0.00 | 0.00 | 85 | 1018.1 |
| 20260503021549 | 42 | 0 | 0.0 | 0.0 | 0.00 | 0.00 | 0.00 | 83 | 1017.9 |
| 20260503020056 | 43 | 0 | 0.0 | 0.0 | 0.00 | 0.00 | 0.00 | 81 | 1017.8 |
| 20260503014549 | 45 | 0 | 0.0 | 0.0 | 0.00 | 0.00 | 0.00 | 78 | 1017.7 |
| 20260503013056 | 46 | 0 | 0.0 | 0.0 | 0.00 | 0.00 | 0.00 | 75 | 1017.6 |
| 20260503011603 | 48 | 0 | 0.0 | 0.0 | 0.00 | 0.00 | 0.00 | 71 | 1017.5 |
| 20260503010051 | 50 | 0 | 0.0 | 0.0 | 0.00 | 0.00 | 0.00 | 67 | 1017.2 |
| 20260503004545 | 51 | 0 | 0.0 | 1.0 | 0.00 | 0.00 | 0.00 | 64 | 1017.1 |
| 20260503003049 | 52 | 0 | 0.0 | 1.0 | 0.00 | 0.00 | 0.00 | 63 | 1017.0 |